Time;durP1;ratioP1;P1;durP2;ratioP2;P2;SDS_P1;SDS_P2;PMS_P1;PMS_P2;Temp;Humidity;BMP_temperature;BMP_pressure;BME280_temperature;BME280_humidity;BME280_pressure;Samples;Min_cycle;Max_cycle;Signal;HPM_P1;HPM_P2
2021/12/19 02:20:47;;;;;;;5.20;4.30;;;7.10;99.90;;;;;;4965138;23;20240;-96
2021/12/19 02:23:13;;;;;;;11.70;5.07;;;7.10;99.90;;;;;;4940989;29;20204;-96
2021/12/19 02:25:40;;;;;;;8.37;5.50;;;7.00;99.90;;;;;;4939537;29;20186;-96
2021/12/19 02:28:06;;;;;;;10.87;5.23;;;7.10;99.90;;;;;;4939971;29;20229;-95
2021/12/19 02:30:32;;;;;;;8.73;5.47;;;7.10;99.90;;;;;;4940250;29;20259;-96
2021/12/19 02:32:59;;;;;;;8.30;5.17;;;7.00;99.90;;;;;;4940091;29;20185;-95
2021/12/19 02:35:30;;;;;;;9.83;6.07;;;7.00;99.90;;;;;;4940277;29;20264;-96
2021/12/19 02:48:08;;;;;;;10.37;6.00;;;7.00;99.90;;;;;;4957746;29;20605;-96
2021/12/19 02:48:46;;;;;;;7.60;3.90;;;7.10;99.90;;;;;;4966930;28;20554;-95
2021/12/19 02:51:11;;;;;;;7.80;4.00;;;7.10;99.90;;;;;;4958989;28;20189;-96
2021/12/19 02:53:39;;;;;;;9.53;3.73;;;7.10;99.90;;;;;;4959156;28;20649;-96
2021/12/19 02:56:08;;;;;;;9.93;4.17;;;7.10;99.90;;;;;;4958930;28;20199;-96
2021/12/19 02:58:36;;;;;;;9.80;3.97;;;7.00;99.90;;;;;;4959077;28;20204;-96
2021/12/19 03:01:06;;;;;;;12.47;3.33;;;7.00;99.90;;;;;;4959109;28;20185;-96
2021/12/19 03:03:32;;;;;;;5.20;2.93;;;7.00;99.90;;;;;;4959180;28;20272;-96
2021/12/19 03:05:57;;;;;;;6.90;3.53;;;7.00;99.90;;;;;;4958521;28;20234;-96
2021/12/19 03:08:23;;;;;;;5.97;2.77;;;7.00;99.90;;;;;;4958722;28;20284;-96
2021/12/19 03:17:57;;;;;;;6.73;3.07;;;7.10;99.90;;;;;;4961045;28;20217;-95
2021/12/19 03:19:16;;;;;;;12.93;3.60;;;7.10;99.90;;;;;;4957073;29;20512;-96
2021/12/19 03:21:43;;;;;;;6.30;2.97;;;7.20;99.90;;;;;;4954474;28;20232;-96
2021/12/19 03:24:09;;;;;;;9.50;3.40;;;7.10;99.90;;;;;;4958984;28;20185;-95
2021/12/19 03:26:35;;;;;;;8.63;3.20;;;7.10;99.90;;;;;;4958821;28;20195;-96
2021/12/19 03:29:02;;;;;;;7.37;3.00;;;7.20;99.90;;;;;;4959552;28;20356;-95
2021/12/19 03:31:27;;;;;;;5.77;2.70;;;7.20;99.90;;;;;;4958701;28;20192;-95
2021/12/19 03:33:53;;;;;;;8.70;3.10;;;7.20;99.90;;;;;;4958660;28;20319;-96
2021/12/19 03:36:19;;;;;;;5.87;3.07;;;7.20;99.90;;;;;;4959436;28;20188;-95
2021/12/19 03:38:45;;;;;;;7.00;2.53;;;7.20;99.90;;;;;;4962510;28;20189;-96
2021/12/19 03:41:19;;;;;;;11.97;2.80;;;7.20;99.90;;;;;;4962452;28;20212;-95
2021/12/19 03:43:45;;;;;;;7.07;2.67;;;7.30;99.90;;;;;;4962240;28;20255;-95
2021/12/19 03:46:11;;;;;;;9.10;3.10;;;7.30;99.90;;;;;;4962213;28;20184;-96
2021/12/19 03:48:37;;;;;;;7.43;2.97;;;7.30;99.90;;;;;;4962469;28;20207;-96
2021/12/19 03:51:03;;;;;;;9.90;2.90;;;7.30;99.90;;;;;;4961980;28;20570;-95
2021/12/19 03:53:29;;;;;;;7.87;2.70;;;7.30;99.90;;;;;;4961814;28;20216;-96
2021/12/19 03:55:54;;;;;;;5.67;2.50;;;7.20;99.90;;;;;;4961905;28;20284;-96
2021/12/19 03:58:20;;;;;;;5.63;2.77;;;7.30;99.90;;;;;;4961732;28;20232;-96
2021/12/19 04:00:48;;;;;;;6.93;2.90;;;7.20;99.90;;;;;;4961873;28;20189;-95
2021/12/19 04:03:18;;;;;;;6.77;2.80;;;7.20;99.90;;;;;;4961982;28;20275;-96
2021/12/19 04:05:48;;;;;;;11.13;3.30;;;7.20;99.90;;;;;;4961451;28;20260;-96
2021/12/19 04:08:15;;;;;;;6.23;2.67;;;7.30;99.90;;;;;;4961756;28;20189;-95
2021/12/19 04:10:41;;;;;;;7.70;2.80;;;7.20;99.90;;;;;;4961545;28;20268;-95
2021/12/19 04:13:07;;;;;;;8.93;3.27;;;7.20;99.90;;;;;;4961868;28;20549;-96
2021/12/19 04:15:33;;;;;;;11.03;2.80;;;7.20;99.90;;;;;;4962290;28;20232;-96
2021/12/19 04:17:59;;;;;;;9.33;2.70;;;7.20;99.90;;;;;;4961194;28;20678;-95
2021/12/19 04:20:25;;;;;;;8.77;3.30;;;7.20;99.90;;;;;;4961260;28;20232;-95
2021/12/19 04:22:52;;;;;;;8.47;3.10;;;7.20;99.90;;;;;;4962258;28;20192;-96
2021/12/19 04:25:18;;;;;;;10.10;3.90;;;7.20;99.90;;;;;;4962229;28;20189;-96
2021/12/19 04:27:45;;;;;;;9.17;3.30;;;7.20;99.90;;;;;;4960780;28;20223;-95
2021/12/19 04:30:17;;;;;;;7.13;2.73;;;7.20;99.90;;;;;;4961786;28;20275;-96
2021/12/19 04:32:47;;;;;;;12.00;3.47;;;7.20;99.90;;;;;;4961562;28;20195;-95
2021/12/19 04:35:13;;;;;;;7.10;3.07;;;7.30;99.90;;;;;;4961648;28;20226;-96
2021/12/19 05:06:10;;;;;;;11.83;4.77;;;7.30;99.90;;;;;;4977462;28;20643;-95
2021/12/19 05:16:42;;;;;;;12.23;5.17;;;7.20;99.90;;;;;;4977794;28;20215;-96
2021/12/19 05:19:22;;;;;;;12.27;4.80;;;7.30;99.90;;;;;;4960792;28;20642;-96
2021/12/19 05:21:52;;;;;;;14.80;4.20;;;7.30;99.90;;;;;;4959788;28;20220;-95
2021/12/19 05:24:43;;;;;;;10.73;4.17;;;7.30;99.90;;;;;;4960741;28;20197;-95
2021/12/19 05:27:09;;;;;;;6.97;3.83;;;7.30;99.90;;;;;;4977208;28;20196;-96
2021/12/19 05:29:36;;;;;;;10.20;3.83;;;7.20;99.90;;;;;;4960036;28;20263;-96
2021/12/19 05:32:04;;;;;;;16.80;4.37;;;7.20;99.90;;;;;;4959786;28;20193;-96
2021/12/19 05:34:30;;;;;;;11.57;3.80;;;7.30;99.90;;;;;;4960164;28;20314;-95
2021/12/19 05:47:37;;;;;;;9.23;4.50;;;7.30;99.90;;;;;;4976821;28;20185;-95
2021/12/19 05:50:04;;;;;;;9.97;4.03;;;7.30;99.90;;;;;;4959899;28;20185;-95
2021/12/19 05:52:30;;;;;;;10.30;4.57;;;7.30;99.90;;;;;;4959812;28;20670;-95
2021/12/19 05:54:56;;;;;;;12.00;5.03;;;7.30;99.90;;;;;;4959740;28;20212;-95
2021/12/19 05:57:22;;;;;;;13.50;5.53;;;7.20;99.90;;;;;;4959693;28;20192;-95
2021/12/19 05:59:48;;;;;;;12.10;5.77;;;7.20;99.90;;;;;;4959365;28;20184;-96
2021/12/19 06:02:13;;;;;;;13.30;5.70;;;7.30;99.90;;;;;;4959556;28;20199;-94
2021/12/19 06:04:39;;;;;;;10.40;5.50;;;7.20;99.90;;;;;;4959978;28;20223;-95
2021/12/19 06:07:05;;;;;;;12.63;5.93;;;7.20;99.90;;;;;;4959513;28;20558;-95
2021/12/19 06:09:31;;;;;;;12.57;5.50;;;7.20;99.90;;;;;;4959604;28;20238;-96
2021/12/19 06:11:56;;;;;;;15.13;5.97;;;7.20;99.90;;;;;;4959670;28;20185;-95
2021/12/19 06:14:23;;;;;;;13.60;5.90;;;7.40;99.90;;;;;;4959880;28;20252;-95
2021/12/19 06:16:49;;;;;;;15.43;5.80;;;7.30;99.90;;;;;;4959692;28;20216;-94
2021/12/19 06:19:15;;;;;;;10.30;5.50;;;7.30;99.90;;;;;;4959292;28;20619;-95
2021/12/19 06:21:40;;;;;;;16.47;5.20;;;7.30;99.90;;;;;;4944054;28;20231;-96
2021/12/19 06:24:06;;;;;;;15.73;4.97;;;7.30;99.90;;;;;;4939944;29;20215;-94
2021/12/19 06:26:35;;;;;;;18.20;5.53;;;7.30;99.90;;;;;;4940173;29;20181;-95
2021/12/19 06:29:03;;;;;;;13.63;4.70;;;7.30;99.90;;;;;;4940376;29;20200;-95
2021/12/19 06:31:28;;;;;;;12.70;5.20;;;7.30;99.90;;;;;;4944029;28;20280;-95
2021/12/19 06:33:54;;;;;;;8.20;3.90;;;7.30;99.90;;;;;;4958244;28;20295;-94
2021/12/19 06:36:20;;;;;;;10.23;4.30;;;7.30;99.90;;;;;;4955054;28;20185;-93
2021/12/19 06:38:46;;;;;;;11.03;4.03;;;7.30;99.90;;;;;;4958577;28;20243;-94
2021/12/19 06:41:11;;;;;;;9.77;4.00;;;7.30;99.90;;;;;;4958911;28;20184;-93
2021/12/19 06:43:37;;;;;;;13.63;3.93;;;7.30;99.90;;;;;;4976010;28;20180;-93
2021/12/19 06:46:03;;;;;;;14.67;4.13;;;7.30;99.90;;;;;;4959017;28;20208;-93
2021/12/19 06:48:29;;;;;;;14.10;3.87;;;7.30;99.90;;;;;;4959397;28;20184;-93
2021/12/19 06:50:55;;;;;;;8.33;3.43;;;7.30;99.90;;;;;;4958559;28;20196;-95
2021/12/19 06:53:22;;;;;;;14.10;4.00;;;7.30;99.90;;;;;;4959291;28;20631;-94
2021/12/19 06:55:48;;;;;;;11.03;3.90;;;7.20;99.90;;;;;;4958826;28;20235;-94
2021/12/19 06:58:13;;;;;;;16.60;4.47;;;7.20;99.90;;;;;;4959059;28;20192;-94
2021/12/19 07:00:39;;;;;;;11.13;3.90;;;7.30;99.90;;;;;;4958946;28;20538;-94
2021/12/19 07:03:05;;;;;;;14.03;4.70;;;7.30;99.90;;;;;;4958762;28;20193;-93
2021/12/19 07:05:31;;;;;;;12.93;4.80;;;7.20;99.90;;;;;;4958841;28;20184;-94
2021/12/19 07:07:57;;;;;;;15.70;5.57;;;7.30;99.90;;;;;;4958687;28;20279;-94
2021/12/19 07:10:22;;;;;;;16.53;5.43;;;7.30;99.90;;;;;;4958829;28;20219;-94
2021/12/19 07:12:48;;;;;;;14.60;5.07;;;7.30;99.90;;;;;;4961546;28;20650;-91
2021/12/19 07:15:15;;;;;;;14.93;5.83;;;7.20;99.90;;;;;;4946388;29;20217;-94
2021/12/19 07:17:41;;;;;;;14.37;5.27;;;7.30;99.90;;;;;;4943228;29;20272;-94
2021/12/19 07:20:07;;;;;;;14.03;5.07;;;7.40;99.90;;;;;;4942874;29;20316;-94
2021/12/19 07:22:33;;;;;;;13.67;5.57;;;7.30;99.90;;;;;;4942826;29;20185;-93
2021/12/19 07:24:59;;;;;;;15.53;5.40;;;7.30;99.90;;;;;;4948910;28;20188;-95
2021/12/19 07:27:24;;;;;;;11.57;5.17;;;7.30;99.90;;;;;;4961754;28;20184;-94
2021/12/19 07:29:52;;;;;;;12.73;5.37;;;7.30;99.90;;;;;;4962225;28;20191;-94
2021/12/19 07:32:18;;;;;;;10.23;5.30;;;7.40;99.90;;;;;;4962347;28;20189;-93
2021/12/19 07:34:46;;;;;;;11.30;4.83;;;7.40;99.90;;;;;;4961918;28;20275;-95
2021/12/19 07:37:12;;;;;;;19.70;4.87;;;7.30;99.90;;;;;;4962031;28;20262;-94
2021/12/19 07:39:51;;;;;;;9.40;4.53;;;7.30;99.90;;;;;;4962490;28;20287;-94
2021/12/19 07:42:16;;;;;;;13.47;4.50;;;7.40;99.90;;;;;;4961915;28;20191;-94
2021/12/19 07:44:42;;;;;;;11.37;4.13;;;7.40;99.90;;;;;;4961827;28;20188;-94
2021/12/19 07:47:08;;;;;;;13.47;4.23;;;7.40;99.90;;;;;;4961821;28;20612;-94
2021/12/19 07:49:35;;;;;;;12.73;4.03;;;7.40;99.90;;;;;;4962128;28;20196;-94
2021/12/19 07:52:01;;;;;;;10.27;4.23;;;7.40;99.90;;;;;;4961267;28;20196;-94
2021/12/19 07:54:27;;;;;;;8.97;3.50;;;7.40;99.90;;;;;;4961138;28;20235;-92
2021/12/19 07:56:53;;;;;;;16.23;4.37;;;7.40;99.90;;;;;;4961137;28;20267;-93
2021/12/19 07:59:20;;;;;;;12.57;4.37;;;7.40;99.90;;;;;;4961000;28;20177;-94
2021/12/19 08:01:48;;;;;;;11.80;4.37;;;7.40;99.90;;;;;;4957863;29;20510;-93
2021/12/19 08:04:14;;;;;;;13.83;4.53;;;7.40;99.90;;;;;;4942352;29;20189;-93
2021/12/19 08:06:40;;;;;;;12.60;4.87;;;7.40;99.90;;;;;;4942062;29;20260;-94
2021/12/19 08:09:10;;;;;;;12.63;4.47;;;7.40;99.90;;;;;;4961083;28;20620;-94
2021/12/19 08:11:40;;;;;;;14.57;4.90;;;7.30;99.90;;;;;;4960939;28;20196;-94
2021/12/19 08:14:12;;;;;;;12.47;4.50;;;7.40;99.90;;;;;;4959128;28;20223;-93
2021/12/19 08:16:38;;;;;;;12.53;5.23;;;7.40;99.90;;;;;;4960569;28;20231;-93
2021/12/19 08:19:04;;;;;;;12.83;4.83;;;7.30;99.90;;;;;;4961465;28;20181;-95
2021/12/19 08:21:31;;;;;;;15.03;4.90;;;7.30;99.90;;;;;;4960845;28;20563;-94
2021/12/19 08:24:00;;;;;;;5.77;3.40;;;7.30;99.90;;;;;;4959940;28;20189;-94
2021/12/19 08:26:26;;;;;;;9.87;3.53;;;7.20;99.90;;;;;;4958760;28;20195;-94
2021/12/19 08:28:52;;;;;;;8.33;4.13;;;7.30;99.90;;;;;;4961423;28;20181;-95
2021/12/19 08:31:18;;;;;;;10.90;3.30;;;7.30;99.90;;;;;;4954627;29;20628;-94
2021/12/19 08:33:44;;;;;;;10.07;3.13;;;7.30;99.90;;;;;;4952787;28;20212;-94
2021/12/19 08:36:10;;;;;;;7.00;3.23;;;7.20;99.90;;;;;;4960800;28;20188;-94
2021/12/19 08:38:36;;;;;;;6.03;2.10;;;7.30;99.90;;;;;;4961266;28;20277;-94
2021/12/19 08:41:02;;;;;;;5.23;2.63;;;7.30;99.90;;;;;;4960797;28;20219;-94
2021/12/19 08:59:00;;;;;;;3.97;2.03;;;7.20;99.90;;;;;;5620827;23;20232;-95
2021/12/19 09:01:28;;;;;;;5.97;2.50;;;7.30;99.90;;;;;;4940031;28;20703;-95
2021/12/19 09:03:54;;;;;;;7.60;2.17;;;7.30;99.90;;;;;;4940860;28;20647;-95
2021/12/19 09:06:20;;;;;;;4.13;1.90;;;7.30;99.90;;;;;;4942673;28;20193;-95
2021/12/19 09:08:46;;;;;;;5.90;2.20;;;7.30;99.90;;;;;;4919020;28;20201;-92
2021/12/19 09:11:12;;;;;;;4.07;2.00;;;7.30;99.90;;;;;;4934991;28;20197;-95
2021/12/19 09:13:38;;;;;;;5.60;2.10;;;7.30;99.90;;;;;;4940962;28;20435;-94
2021/12/19 09:16:04;;;;;;;5.73;2.10;;;7.30;99.90;;;;;;4936683;29;20221;-93
2021/12/19 09:18:31;;;;;;;7.40;2.03;;;7.30;99.90;;;;;;4938544;28;20193;-94
2021/12/19 09:20:56;;;;;;;2.80;1.67;;;7.30;99.90;;;;;;4939756;28;20248;-93
2021/12/19 09:23:23;;;;;;;3.77;1.70;;;7.30;99.90;;;;;;4955863;28;20269;-93
2021/12/19 09:25:59;;;;;;;5.77;1.93;;;7.30;99.90;;;;;;4941280;28;20204;-94
2021/12/19 09:28:25;;;;;;;8.73;2.20;;;7.30;99.90;;;;;;4952380;28;20205;-94
2021/12/19 09:30:51;;;;;;;3.77;1.93;;;7.30;99.90;;;;;;4938820;28;20201;-96
2021/12/19 09:33:17;;;;;;;4.60;2.10;;;7.20;99.90;;;;;;4942806;28;20193;-94
2021/12/19 09:35:42;;;;;;;5.70;1.80;;;7.20;99.90;;;;;;4940438;28;20255;-96
2021/12/19 09:38:08;;;;;;;4.97;1.93;;;7.10;99.90;;;;;;4955521;28;20189;-96
2021/12/19 09:40:38;;;;;;;2.63;1.70;;;7.20;99.90;;;;;;4940419;28;20244;-96
2021/12/19 09:43:09;;;;;;;6.87;2.30;;;7.20;99.90;;;;;;4939935;28;20314;-96
2021/12/19 09:45:35;;;;;;;7.97;2.53;;;7.30;99.90;;;;;;4939531;28;20625;-95
2021/12/19 09:48:01;;;;;;;2.80;1.80;;;7.20;99.90;;;;;;4939323;28;20204;-96
2021/12/19 09:50:28;;;;;;;5.53;2.23;;;7.20;99.90;;;;;;4939781;28;20200;-96
2021/12/19 09:52:53;;;;;;;4.27;1.57;;;7.20;99.90;;;;;;4938833;28;20289;-96
2021/12/19 09:55:21;;;;;;;3.60;1.70;;;7.20;99.90;;;;;;4939303;28;20303;-96
2021/12/19 09:57:48;;;;;;;5.47;1.67;;;7.30;99.90;;;;;;4939464;28;20240;-96
2021/12/19 10:00:15;;;;;;;4.67;2.00;;;7.30;99.90;;;;;;4939528;28;20236;-96
2021/12/19 10:02:42;;;;;;;3.67;2.27;;;7.20;99.90;;;;;;4938943;28;20230;-96
2021/12/19 10:05:28;;;;;;;5.13;1.90;;;7.20;99.90;;;;;;4940353;28;20208;-96
2021/12/19 10:08:00;;;;;;;4.47;2.40;;;7.20;99.90;;;;;;4939990;28;20197;-96
2021/12/19 10:10:54;;;;;;;4.70;2.17;;;7.10;99.90;;;;;;4940173;28;20208;-96
2021/12/19 10:13:31;;;;;;;4.37;2.03;;;7.10;99.90;;;;;;4937443;28;20193;-96
2021/12/19 10:15:57;;;;;;;7.17;2.77;;;7.10;99.90;;;;;;4938990;28;20218;-95
2021/12/19 10:18:23;;;;;;;6.33;2.43;;;7.10;99.90;;;;;;4938670;28;20196;-96
2021/12/19 10:20:53;;;;;;;7.80;2.40;;;7.20;99.90;;;;;;4958301;28;20216;-96
2021/12/19 10:23:26;;;;;;;4.60;2.07;;;7.20;99.90;;;;;;4935862;28;20632;-96
2021/12/19 10:26:00;;;;;;;4.60;2.10;;;7.30;99.90;;;;;;4939614;28;20271;-96
2021/12/19 10:28:27;;;;;;;7.37;2.10;;;7.30;99.90;;;;;;4939137;28;20202;-96
2021/12/19 10:30:53;;;;;;;4.33;2.00;;;7.30;99.90;;;;;;4939944;28;20189;-95
2021/12/19 10:33:23;;;;;;;2.83;1.80;;;7.30;99.90;;;;;;4938255;28;20268;-96
2021/12/19 10:35:57;;;;;;;2.87;1.70;;;7.30;99.90;;;;;;4938009;28;20193;-96
2021/12/19 10:38:33;;;;;;;6.10;1.77;;;7.30;99.90;;;;;;4940673;28;20185;-96
2021/12/19 10:41:13;;;;;;;3.00;1.80;;;7.20;99.90;;;;;;4951292;28;20207;-96
2021/12/19 10:43:46;;;;;;;4.50;2.17;;;7.20;99.90;;;;;;4957066;28;20259;-96
2021/12/19 10:46:14;;;;;;;7.73;2.60;;;7.20;99.90;;;;;;4974477;28;20213;-96
2021/12/19 10:48:50;;;;;;;5.67;2.10;;;7.20;99.90;;;;;;4961486;28;20288;-96
2021/12/19 10:51:19;;;;;;;6.03;2.60;;;7.20;99.90;;;;;;4952556;28;20192;-96
2021/12/19 10:53:52;;;;;;;4.13;2.27;;;7.10;99.90;;;;;;4941968;28;20221;-96
2021/12/19 10:56:23;;;;;;;5.67;2.40;;;7.20;99.90;;;;;;4949485;28;20197;-96
2021/12/19 10:58:57;;;;;;;6.90;2.43;;;7.10;99.90;;;;;;4946479;28;20323;-96
2021/12/19 11:01:34;;;;;;;6.57;2.40;;;7.10;99.90;;;;;;4945686;28;20520;-96
2021/12/19 11:04:02;;;;;;;4.67;2.20;;;7.00;99.90;;;;;;4944286;28;20211;-96
2021/12/19 11:06:40;;;;;;;5.30;2.33;;;7.10;99.90;;;;;;4946688;29;20189;-96
2021/12/19 11:09:11;;;;;;;5.77;2.03;;;7.10;99.90;;;;;;4946255;28;20595;-96
2021/12/19 11:11:39;;;;;;;7.73;1.87;;;7.10;99.90;;;;;;4949853;28;20280;-95
2021/12/19 11:14:07;;;;;;;7.60;2.63;;;7.20;99.90;;;;;;4939654;28;20216;-96
2021/12/19 11:16:33;;;;;;;6.83;1.57;;;7.20;99.90;;;;;;4938720;29;20525;-96
2021/12/19 11:18:59;;;;;;;5.97;1.60;;;7.20;99.90;;;;;;4959007;28;20245;-96
2021/12/19 11:21:25;;;;;;;8.33;1.70;;;7.20;99.90;;;;;;4961203;28;20205;-96
2021/12/19 11:23:51;;;;;;;7.50;1.47;;;7.20;99.90;;;;;;4945032;28;20703;-96
2021/12/19 11:26:20;;;;;;;7.60;1.40;;;7.20;99.90;;;;;;4945303;28;20192;-96
2021/12/19 11:28:48;;;;;;;5.80;1.87;;;7.20;99.90;;;;;;4944627;28;20197;-94
2021/12/19 11:31:15;;;;;;;4.73;1.50;;;7.20;99.90;;;;;;4943432;28;20197;-96
2021/12/19 11:34:08;;;;;;;5.47;1.60;;;7.20;99.90;;;;;;4944279;28;20213;-96
2021/12/19 11:36:39;;;;;;;12.50;2.30;;;7.30;99.90;;;;;;4944815;29;20197;-96
2021/12/19 11:39:07;;;;;;;7.37;1.80;;;7.30;99.90;;;;;;4943760;29;20189;-96
2021/12/19 11:41:34;;;;;;;4.53;2.07;;;7.30;99.90;;;;;;4943174;28;20204;-96
2021/12/19 11:44:04;;;;;;;6.40;1.80;;;7.30;99.90;;;;;;4943642;28;20207;-96
2021/12/19 11:46:52;;;;;;;6.63;1.80;;;7.30;99.90;;;;;;4943854;28;20224;-96
2021/12/19 11:49:24;;;;;;;7.57;1.87;;;7.30;99.90;;;;;;4959616;28;20248;-96
2021/12/19 11:52:23;;;;;;;6.43;1.63;;;7.30;99.90;;;;;;4945408;28;20252;-95
2021/12/19 11:55:14;;;;;;;6.20;1.80;;;7.30;99.90;;;;;;4941740;28;20231;-96
2021/12/19 11:58:08;;;;;;;8.10;1.93;;;7.40;99.90;;;;;;4940524;28;20198;-96
2021/12/19 12:00:44;;;;;;;7.93;1.83;;;7.40;99.90;;;;;;4941537;28;20216;-96
2021/12/19 12:03:13;;;;;;;8.47;1.57;;;7.40;99.90;;;;;;4947513;28;20203;-96
2021/12/19 12:05:46;;;;;;;7.13;2.07;;;7.40;99.90;;;;;;4946271;28;20205;-96
2021/12/19 12:08:15;;;;;;;8.33;1.97;;;7.40;99.90;;;;;;4941797;28;20209;-96
2021/12/19 12:10:47;;;;;;;10.03;2.17;;;7.40;99.90;;;;;;4945215;28;20200;-96
2021/12/19 12:13:25;;;;;;;9.20;2.03;;;7.40;99.90;;;;;;4943641;28;20655;-95
2021/12/19 12:16:06;;;;;;;6.57;2.13;;;7.40;99.90;;;;;;4942891;28;20648;-96
2021/12/19 12:18:38;;;;;;;4.90;1.80;;;7.40;99.90;;;;;;4957759;28;20185;-96
2021/12/19 12:23:54;;;;;;;7.97;2.33;;;7.40;99.90;;;;;;4961829;28;20193;-96
2021/12/19 12:26:31;;;;;;;7.23;2.13;;;7.40;99.90;;;;;;4944456;28;20227;-96
2021/12/19 12:28:58;;;;;;;5.73;2.00;;;7.40;99.90;;;;;;4943358;28;20256;-96
2021/12/19 12:31:24;;;;;;;8.27;1.87;;;7.40;99.90;;;;;;4943327;28;20193;-96
2021/12/19 12:33:51;;;;;;;7.23;2.03;;;7.30;99.90;;;;;;4942846;28;20235;-96
2021/12/19 12:36:17;;;;;;;7.03;2.40;;;7.40;99.90;;;;;;4942511;28;20655;-96
2021/12/19 12:38:46;;;;;;;6.13;1.90;;;7.40;99.90;;;;;;4943120;28;20197;-96
2021/12/19 12:41:27;;;;;;;9.40;2.27;;;7.40;99.90;;;;;;4943343;28;20209;-96
2021/12/19 12:43:55;;;;;;;7.37;2.07;;;7.40;99.90;;;;;;4942342;28;20193;-96
2021/12/19 12:46:23;;;;;;;12.37;2.13;;;7.40;99.90;;;;;;4943082;28;20232;-95
2021/12/19 12:49:02;;;;;;;8.87;2.30;;;7.30;99.90;;;;;;4941318;28;20193;-96
2021/12/19 12:51:43;;;;;;;12.27;2.90;;;7.30;99.90;;;;;;4944160;28;20193;-96
2021/12/19 12:54:12;;;;;;;10.77;2.70;;;7.30;99.90;;;;;;4945599;28;20234;-96
2021/12/19 12:56:46;;;;;;;10.97;2.80;;;7.30;99.90;;;;;;4942867;28;20288;-96
2021/12/19 12:59:15;;;;;;;9.30;2.83;;;7.30;99.90;;;;;;4948531;28;20244;-96
2021/12/19 13:01:51;;;;;;;8.13;2.50;;;7.30;99.90;;;;;;4931415;28;20205;-96
2021/12/19 13:04:24;;;;;;;10.47;2.57;;;7.30;99.90;;;;;;4949662;28;20228;-96
2021/12/19 13:07:04;;;;;;;9.37;2.57;;;7.30;99.90;;;;;;4945000;28;20192;-96
2021/12/19 13:09:37;;;;;;;12.03;2.53;;;7.30;99.90;;;;;;4942918;29;20196;-95
2021/12/19 13:12:18;;;;;;;9.97;2.33;;;7.30;99.90;;;;;;4948381;28;20224;-94
2021/12/19 13:14:55;;;;;;;9.77;2.80;;;7.30;99.90;;;;;;4951682;28;20256;-96
2021/12/19 13:17:44;;;;;;;9.17;2.60;;;7.30;99.90;;;;;;4947253;28;20192;-95
2021/12/19 13:20:22;;;;;;;9.80;2.37;;;7.30;99.90;;;;;;4957584;28;20192;-96
2021/12/19 13:22:51;;;;;;;10.27;2.57;;;7.40;99.90;;;;;;4949672;28;20205;-96
2021/12/19 13:25:21;;;;;;;10.40;2.20;;;7.30;99.90;;;;;;4933339;28;20199;-96
2021/12/19 13:27:58;;;;;;;19.83;3.23;;;7.30;99.90;;;;;;4967385;28;20271;-95
2021/12/19 13:30:30;;;;;;;12.63;3.37;;;7.30;99.90;;;;;;4937351;28;20197;-96
2021/12/19 13:33:04;;;;;;;9.40;2.83;;;7.30;99.90;;;;;;4969410;28;20200;-96
2021/12/19 13:35:59;;;;;;;11.50;2.80;;;7.30;99.90;;;;;;4953881;28;20239;-96
2021/12/19 13:38:27;;;;;;;7.77;2.80;;;7.30;99.90;;;;;;4954205;28;20272;-96
2021/12/19 13:41:10;;;;;;;11.97;3.23;;;7.40;99.90;;;;;;4951562;28;20197;-96
2021/12/19 13:43:38;;;;;;;12.70;2.73;;;7.30;99.90;;;;;;4958844;29;20197;-96
2021/12/19 13:46:10;;;;;;;12.90;2.50;;;7.30;99.90;;;;;;4951337;28;20193;-96
2021/12/19 13:48:47;;;;;;;16.43;2.90;;;7.30;99.90;;;;;;4950435;28;20632;-96
2021/12/19 13:51:23;;;;;;;12.63;2.50;;;7.50;99.90;;;;;;4953926;28;20251;-95
2021/12/19 13:53:56;;;;;;;12.43;2.60;;;7.40;99.90;;;;;;4951254;28;20236;-95
2021/12/19 13:56:38;;;;;;;9.67;2.67;;;7.30;99.90;;;;;;4946154;28;20205;-96
2021/12/19 13:59:24;;;;;;;11.20;3.13;;;7.30;99.90;;;;;;4955017;28;20266;-96
2021/12/19 14:01:50;;;;;;;11.00;2.67;;;7.40;99.90;;;;;;4948048;28;20203;-95
2021/12/19 14:04:27;;;;;;;13.77;2.77;;;7.40;99.90;;;;;;4945534;28;20201;-96
2021/12/19 14:06:58;;;;;;;14.70;4.07;;;7.40;99.90;;;;;;4948629;28;20523;-96
2021/12/19 14:09:26;;;;;;;12.73;2.83;;;7.30;99.90;;;;;;4972029;28;20181;-95
2021/12/19 14:12:00;;;;;;;15.60;3.40;;;7.30;99.90;;;;;;4957830;28;20185;-96
2021/12/19 14:14:32;;;;;;;13.20;2.83;;;7.30;99.90;;;;;;4941477;28;20218;-96
2021/12/19 14:17:06;;;;;;;16.23;3.50;;;7.30;99.90;;;;;;4955094;28;20193;-96
2021/12/19 14:19:47;;;;;;;10.27;3.17;;;7.30;99.90;;;;;;4953218;28;20193;-96
2021/12/19 14:22:15;;;;;;;11.83;3.40;;;7.40;99.90;;;;;;4973152;28;20632;-96
2021/12/19 14:24:47;;;;;;;13.20;2.80;;;7.40;99.90;;;;;;4975115;28;20285;-96
2021/12/19 14:27:39;;;;;;;14.20;2.93;;;7.40;99.90;;;;;;4953481;28;20201;-95
2021/12/19 14:30:27;;;;;;;16.37;2.87;;;7.40;99.90;;;;;;4955780;28;20292;-96
2021/12/19 14:33:00;;;;;;;10.10;2.60;;;7.40;99.90;;;;;;4967410;28;20189;-96
2021/12/19 14:35:38;;;;;;;10.03;2.80;;;7.40;99.90;;;;;;4962375;28;20336;-96
2021/12/19 14:38:14;;;;;;;11.43;2.60;;;7.40;99.90;;;;;;4943798;28;20185;-96
2021/12/19 14:40:42;;;;;;;10.67;2.40;;;7.30;99.90;;;;;;4942266;28;20287;-96
2021/12/19 14:43:18;;;;;;;9.40;3.20;;;7.30;99.90;;;;;;4942039;28;20193;-96
2021/12/19 14:45:51;;;;;;;12.97;2.67;;;7.40;99.90;;;;;;4943591;28;20203;-95
2021/12/19 14:48:29;;;;;;;7.83;2.37;;;7.40;99.90;;;;;;4940633;28;20198;-96
2021/12/19 14:51:14;;;;;;;12.40;2.57;;;7.50;99.90;;;;;;4945207;28;20268;-95
2021/12/19 14:53:47;;;;;;;10.73;2.00;;;7.50;99.90;;;;;;4943286;28;20284;-96
2021/12/19 14:56:14;;;;;;;15.40;3.37;;;7.50;99.90;;;;;;4928397;28;20200;-95
2021/12/19 14:58:47;;;;;;;7.47;2.43;;;7.50;99.90;;;;;;4944278;28;20236;-95
2021/12/19 15:01:25;;;;;;;16.27;2.37;;;7.50;99.90;;;;;;4941798;28;20198;-95
2021/12/19 15:03:54;;;;;;;11.17;2.63;;;7.50;99.90;;;;;;4948644;28;20247;-94
2021/12/19 15:06:23;;;;;;;9.63;2.53;;;7.40;99.90;;;;;;4937882;28;20629;-95
2021/12/19 15:08:54;;;;;;;11.80;2.93;;;7.40;99.90;;;;;;4951402;28;20655;-95
2021/12/19 15:11:23;;;;;;;12.27;3.70;;;7.50;99.90;;;;;;4960255;28;20205;-95
2021/12/19 15:13:53;;;;;;;15.70;4.97;;;7.50;99.90;;;;;;4942229;28;20316;-95
2021/12/19 15:16:20;;;;;;;20.20;5.50;;;7.50;99.90;;;;;;4965670;28;20518;-96
2021/12/19 15:18:46;;;;;;;12.90;2.50;;;7.40;99.90;;;;;;4940799;28;20539;-96
2021/12/19 15:21:15;;;;;;;10.70;2.70;;;7.40;99.90;;;;;;4943237;28;20205;-96
2021/12/19 15:23:44;;;;;;;5.97;1.97;;;7.50;99.90;;;;;;4961961;28;20228;-96
2021/12/19 15:26:14;;;;;;;10.57;3.83;;;7.40;99.90;;;;;;4942132;29;20197;-95
2021/12/19 15:28:48;;;;;;;11.97;3.90;;;7.40;99.90;;;;;;4947628;28;20264;-96
2021/12/19 15:31:22;;;;;;;9.03;2.40;;;7.50;99.90;;;;;;4938000;28;20201;-96
2021/12/19 15:33:50;;;;;;;10.27;2.47;;;7.50;99.90;;;;;;4946700;28;20225;-95
2021/12/19 15:36:28;;;;;;;9.43;2.50;;;7.50;99.90;;;;;;4961508;28;20201;-96
2021/12/19 15:38:55;;;;;;;8.60;2.47;;;7.50;99.90;;;;;;4957164;28;20208;-96
2021/12/19 15:41:28;;;;;;;12.20;2.23;;;7.50;99.90;;;;;;4963676;28;20197;-95
2021/12/19 15:43:54;;;;;;;12.97;5.07;;;7.40;99.90;;;;;;4930133;28;20629;-96
2021/12/19 15:46:24;;;;;;;9.43;2.20;;;7.40;99.90;;;;;;4947907;28;20212;-96
2021/12/19 15:48:51;;;;;;;12.23;2.87;;;7.40;99.90;;;;;;4955622;28;20279;-95
2021/12/19 15:51:19;;;;;;;10.27;2.67;;;7.50;99.90;;;;;;4951311;28;20189;-96
2021/12/19 15:53:45;;;;;;;9.70;2.20;;;7.50;99.90;;;;;;4942803;28;20221;-95
2021/12/19 15:56:11;;;;;;;7.27;2.07;;;7.50;99.90;;;;;;4945111;29;20655;-96
2021/12/19 15:58:37;;;;;;;9.57;1.80;;;7.60;99.90;;;;;;4942466;28;20233;-94
2021/12/19 16:01:04;;;;;;;10.00;1.90;;;7.60;99.90;;;;;;4949326;28;20186;-95
2021/12/19 16:03:31;;;;;;;8.27;1.70;;;7.70;99.90;;;;;;4943953;28;20632;-96
2021/12/19 16:05:56;;;;;;;7.57;2.10;;;7.60;99.90;;;;;;4943929;28;20197;-96
2021/12/19 16:08:22;;;;;;;10.97;1.60;;;7.70;99.90;;;;;;4942342;28;20204;-96
2021/12/19 16:10:49;;;;;;;9.17;2.00;;;7.70;99.90;;;;;;4941219;28;20197;-96
2021/12/19 16:13:15;;;;;;;10.37;2.53;;;7.70;99.90;;;;;;4941813;28;20198;-95
2021/12/19 16:15:41;;;;;;;12.40;2.40;;;7.70;99.90;;;;;;4941590;28;20229;-96
2021/12/19 16:18:07;;;;;;;9.00;1.97;;;7.70;99.90;;;;;;4941020;28;20208;-95
2021/12/19 16:20:33;;;;;;;8.90;2.23;;;7.70;99.90;;;;;;4940982;28;20640;-96
2021/12/19 16:22:58;;;;;;;13.37;1.90;;;7.70;99.90;;;;;;4940996;28;20663;-95
2021/12/19 16:25:30;;;;;;;7.37;1.97;;;7.60;99.90;;;;;;4941185;28;20248;-95
2021/12/19 16:27:56;;;;;;;13.83;2.47;;;7.60;99.90;;;;;;4940527;28;20207;-95
2021/12/19 16:30:21;;;;;;;8.57;2.20;;;7.50;99.90;;;;;;4940809;28;20457;-96
2021/12/19 16:32:53;;;;;;;9.80;2.23;;;7.50;99.90;;;;;;4938395;28;20207;-95
2021/12/19 16:35:19;;;;;;;13.67;2.93;;;7.50;99.90;;;;;;4941478;28;20233;-96
2021/12/19 16:37:45;;;;;;;9.23;2.40;;;7.50;99.90;;;;;;4940456;28;20205;-96
2021/12/19 16:40:11;;;;;;;8.23;1.80;;;7.60;99.90;;;;;;4941966;28;20225;-96
2021/12/19 16:45:07;;;;;;;9.97;2.50;;;7.60;99.90;;;;;;4956769;28;20251;-96
2021/12/19 16:47:34;;;;;;;9.57;2.30;;;7.60;99.90;;;;;;4940114;28;20291;-96